FDTS weather

Tshaneni Airport
Tshaneni, Lubombo, Swaziland

Public forecast

Using degrees Celsius for public forecast. Weather courtesy of forecast.io.

Closest aviation weather report (METAR) to Tshaneni Airport

Report is more than 6 hours old.

Closest report is Matsapha Airport, 33.3 nm (61.6 km) S. Retrieved 2020/01/24 13:00 UTC (2 days ago):

FDMS 241300Z 06005KT 9999 BKN035 26/19 Q1017 NOSIG

Closest aviation forecast (TAF) to Tshaneni Airport

Forecast is more than 12 hours old.

Closest forecast is Matsapha Airport, 33.3 nm (61.6 km) S. Retrieved 2020/01/07 06:39 UTC (19 days ago):

TAF TAF FDMS 070400Z 0706/0718 03007KT 9999 SCT035 BECMG 0712/0714 CAVOK